createdAt,value
2023-03-29T00:00:14.180Z,5.40
2023-03-29T00:02:42.820Z,7.75
2023-03-29T00:05:12.352Z,5.63
2023-03-29T00:07:41.481Z,5.72
2023-03-29T00:10:12.604Z,7.43
2023-03-29T00:12:42.004Z,4.88
2023-03-29T00:15:11.112Z,6.85
2023-03-29T00:17:39.106Z,8.48
2023-03-29T00:20:10.289Z,6.22
2023-03-29T00:22:39.930Z,6.68
2023-03-29T00:25:08.268Z,5.95
2023-03-29T00:27:37.452Z,6.60
2023-03-29T00:30:06.532Z,4.97
2023-03-29T00:32:34.821Z,6.75
2023-03-29T00:35:02.848Z,6.20
2023-03-29T00:37:30.936Z,11.93
2023-03-29T00:39:59.257Z,7.40
2023-03-29T00:42:27.187Z,6.47
2023-03-29T00:45:01.918Z,8.32
2023-03-29T00:47:34.014Z,6.38
2023-03-29T00:50:06.115Z,8.65
2023-03-29T00:52:34.925Z,4.70
2023-03-29T00:55:05.815Z,9.07
2023-03-29T00:57:34.179Z,7.97
2023-03-29T01:00:10.447Z,5.43
2023-03-29T01:02:40.040Z,3.55
2023-03-29T01:05:10.448Z,6.22
2023-03-29T01:07:43.080Z,10.05
2023-03-29T01:10:14.622Z,9.68
2023-03-29T01:12:45.574Z,7.68
2023-03-29T01:15:17.143Z,6.75
2023-03-29T01:17:50.944Z,5.53
2023-03-29T01:20:22.258Z,5.95
2023-03-29T01:23:10.724Z,6.55
2023-03-29T01:25:42.820Z,8.25
2023-03-29T01:28:14.611Z,10.65
2023-03-29T01:30:47.105Z,5.18
2023-03-29T01:33:21.276Z,4.78
2023-03-29T01:35:52.390Z,5.38
2023-03-29T01:38:24.728Z,4.85
2023-03-29T01:40:53.810Z,8.38
2023-03-29T01:43:26.622Z,6.55
2023-03-29T01:46:00.945Z,6.50
2023-03-29T01:48:32.398Z,5.88
2023-03-29T01:51:04.915Z,6.80
2023-03-29T01:53:37.530Z,6.95
2023-03-29T01:56:07.799Z,7.88
2023-03-29T01:58:39.995Z,6.68
2023-03-29T02:01:11.012Z,7.80
2023-03-29T02:03:43.187Z,7.88
2023-03-29T02:06:12.392Z,5.28
2023-03-29T02:08:41.264Z,6.20
2023-03-29T02:11:09.748Z,6.20
2023-03-29T02:13:39.095Z,7.85
2023-03-29T02:16:12.270Z,8.15
2023-03-29T02:18:41.341Z,7.82
2023-03-29T02:21:10.231Z,9.95
2023-03-29T02:23:41.112Z,7.35
2023-03-29T02:26:09.861Z,6.80
2023-03-29T02:28:39.103Z,7.05
2023-03-29T02:31:10.583Z,6.72
2023-03-29T02:33:42.112Z,8.18
2023-03-29T02:36:14.894Z,9.32
2023-03-29T02:38:43.108Z,7.00
2023-03-29T02:41:12.198Z,11.57
2023-03-29T02:43:42.396Z,7.72
2023-03-29T02:46:12.110Z,7.00
2023-03-29T02:48:40.142Z,6.47
2023-03-29T02:51:12.844Z,8.95
2023-03-29T02:53:43.540Z,6.68
2023-03-29T02:56:11.459Z,9.60
2023-03-29T02:58:39.630Z,5.85
2023-03-29T03:01:10.176Z,9.30
2023-03-29T03:03:38.280Z,12.57
2023-03-29T03:06:06.749Z,8.82
2023-03-29T03:08:34.765Z,7.80
2023-03-29T03:11:03.009Z,11.32
2023-03-29T03:13:31.134Z,10.38
2023-03-29T03:15:58.923Z,9.60
2023-03-29T03:18:28.773Z,8.13
2023-03-29T03:20:57.507Z,11.32
2023-03-29T03:23:26.167Z,10.73
2023-03-29T03:25:54.189Z,11.68
2023-03-29T03:28:22.227Z,7.75
2023-03-29T03:30:50.313Z,6.60
2023-03-29T03:33:19.321Z,7.97
2023-03-29T03:35:48.520Z,8.43
2023-03-29T03:38:18.161Z,10.82
2023-03-29T03:40:55.070Z,8.15
2023-03-29T03:43:23.631Z,8.85
2023-03-29T03:45:52.487Z,10.50
2023-03-29T03:48:24.963Z,12.25
2023-03-29T03:51:19.760Z,7.90
2023-03-29T03:53:47.766Z,10.15
2023-03-29T03:56:16.340Z,5.85
2023-03-29T03:59:04.837Z,7.25
2023-03-29T04:01:45.048Z,8.77
2023-03-29T04:04:17.399Z,9.73
2023-03-29T04:07:09.779Z,7.55
2023-03-29T04:09:56.516Z,10.45
2023-03-29T04:12:43.223Z,7.63
2023-03-29T04:15:12.225Z,11.68
2023-03-29T04:17:45.819Z,12.55
2023-03-29T04:20:25.772Z,11.13
2023-03-29T04:22:55.289Z,10.07
2023-03-29T04:25:23.381Z,7.78
2023-03-29T04:28:20.488Z,8.65
2023-03-29T04:30:52.923Z,11.25
2023-03-29T04:33:47.584Z,9.98
2023-03-29T04:36:16.836Z,8.00
2023-03-29T04:38:48.090Z,5.70
2023-03-29T04:41:17.742Z,9.13
2023-03-29T04:43:58.078Z,5.55
2023-03-29T04:46:27.235Z,11.07
2023-03-29T04:49:13.634Z,13.75
2023-03-29T04:51:45.791Z,9.25
2023-03-29T04:54:15.398Z,12.57
2023-03-29T04:56:57.603Z,12.32
2023-03-29T04:59:46.561Z,7.90
2023-03-29T05:02:37.766Z,8.93
2023-03-29T05:05:06.059Z,13.23
2023-03-29T05:07:33.909Z,5.78
2023-03-29T05:10:03.176Z,6.55
2023-03-29T05:12:30.984Z,10.15
2023-03-29T05:14:59.148Z,8.38
2023-03-29T05:17:28.637Z,8.65
2023-03-29T05:20:07.288Z,7.75
2023-03-29T05:22:36.425Z,4.65
2023-03-29T05:25:06.308Z,10.35
2023-03-29T05:27:34.547Z,5.50
2023-03-29T05:30:09.892Z,7.25
2023-03-29T05:33:03.006Z,14.57
2023-03-29T05:35:31.641Z,7.63
2023-03-29T05:38:01.820Z,8.38
2023-03-29T05:40:31.608Z,8.45
2023-03-29T05:43:17.975Z,9.93
2023-03-29T05:45:46.417Z,8.82
2023-03-29T05:48:14.455Z,9.95
2023-03-29T05:50:48.397Z,9.00
2023-03-29T05:53:17.142Z,6.05
2023-03-29T05:55:46.683Z,8.07
2023-03-29T05:58:19.118Z,9.90
2023-03-29T06:00:49.507Z,9.05
2023-03-29T06:03:34.934Z,12.27
2023-03-29T06:06:04.152Z,8.65
2023-03-29T06:08:33.672Z,7.70
2023-03-29T06:11:26.550Z,13.65
2023-03-29T06:14:13.708Z,8.30
2023-03-29T06:16:47.568Z,8.75
2023-03-29T06:19:16.799Z,8.93
2023-03-29T06:21:44.879Z,6.88
2023-03-29T06:24:16.801Z,6.88
2023-03-29T06:26:53.358Z,8.07
2023-03-29T06:29:21.347Z,7.15
2023-03-29T06:31:49.767Z,10.20
2023-03-29T06:34:41.000Z,10.80
2023-03-29T06:37:22.678Z,6.38
2023-03-29T06:39:58.202Z,10.35
2023-03-29T06:42:32.505Z,10.30
2023-03-29T06:45:17.111Z,7.00
2023-03-29T06:47:49.116Z,9.02
2023-03-29T06:50:18.118Z,6.38
2023-03-29T06:53:05.208Z,12.32
2023-03-29T06:55:36.158Z,8.40
2023-03-29T06:58:24.043Z,10.77
2023-03-29T07:00:53.883Z,8.88
2023-03-29T07:03:31.589Z,10.20
2023-03-29T07:06:03.722Z,10.20
2023-03-29T07:08:35.292Z,8.00
2023-03-29T07:11:08.565Z,13.55
2023-03-29T07:13:56.192Z,8.55
2023-03-29T07:16:24.450Z,10.82
2023-03-29T07:18:58.193Z,11.48
2023-03-29T07:21:46.552Z,9.23
2023-03-29T07:24:15.678Z,9.38
2023-03-29T07:26:52.130Z,10.35
2023-03-29T07:29:23.038Z,10.10
2023-03-29T07:31:51.607Z,12.35
2023-03-29T07:34:46.358Z,13.38
2023-03-29T07:37:22.310Z,13.60
2023-03-29T07:39:51.016Z,8.68
2023-03-29T07:42:36.609Z,7.85
2023-03-29T07:45:08.703Z,9.85
2023-03-29T07:47:46.344Z,14.70
2023-03-29T07:50:14.636Z,7.72
2023-03-29T07:52:42.693Z,14.77
2023-03-29T07:55:12.664Z,12.30
2023-03-29T07:58:08.057Z,10.95
2023-03-29T08:00:38.464Z,11.73
2023-03-29T08:03:27.907Z,13.85
2023-03-29T08:05:56.333Z,10.35
2023-03-29T08:08:24.354Z,12.82
2023-03-29T08:10:57.118Z,15.75
2023-03-29T08:13:54.211Z,10.35
2023-03-29T08:16:43.394Z,13.57
2023-03-29T08:19:15.206Z,15.82
2023-03-29T08:21:55.356Z,10.48
2023-03-29T08:24:25.739Z,16.00
2023-03-29T08:26:58.280Z,15.48
2023-03-29T08:29:27.172Z,12.82
2023-03-29T08:31:58.432Z,11.52
2023-03-29T08:34:26.684Z,14.40
2023-03-29T08:37:13.080Z,10.95
2023-03-29T08:39:46.007Z,12.95
2023-03-29T08:42:46.666Z,11.23
2023-03-29T08:45:18.868Z,15.90
2023-03-29T08:47:55.115Z,12.05
2023-03-29T08:50:32.648Z,12.07
2023-03-29T08:53:04.689Z,13.98
2023-03-29T08:55:54.539Z,13.30
2023-03-29T08:58:43.349Z,15.68
2023-03-29T09:01:11.857Z,15.85
2023-03-29T09:04:10.170Z,15.68
2023-03-29T09:07:05.077Z,15.73
2023-03-29T09:09:39.661Z,19.10
2023-03-29T09:12:27.079Z,15.13
2023-03-29T09:15:08.608Z,15.98
2023-03-29T09:17:49.603Z,17.95
2023-03-29T09:20:28.307Z,15.63
2023-03-29T09:23:07.010Z,15.48
2023-03-29T09:25:56.176Z,12.70
2023-03-29T09:28:34.872Z,20.55
2023-03-29T09:31:06.054Z,17.58
2023-03-29T09:33:42.766Z,17.45
2023-03-29T09:36:19.741Z,18.02
2023-03-29T09:38:54.089Z,20.55
2023-03-29T09:41:27.764Z,20.17
2023-03-29T09:43:58.301Z,18.55
2023-03-29T09:46:32.304Z,17.95
2023-03-29T09:49:00.475Z,18.50
2023-03-29T09:51:31.414Z,17.10
2023-03-29T09:54:00.736Z,21.08
2023-03-29T09:56:50.060Z,17.85
2023-03-29T09:59:20.919Z,16.20
2023-03-29T10:01:48.736Z,15.85
2023-03-29T10:04:17.799Z,16.77
2023-03-29T10:06:53.875Z,13.05
2023-03-29T10:09:24.704Z,18.25
2023-03-29T10:12:02.388Z,15.75
2023-03-29T10:14:34.887Z,18.35
2023-03-29T10:17:06.450Z,14.48
2023-03-29T10:19:36.037Z,14.80
2023-03-29T10:22:07.659Z,18.80
2023-03-29T10:24:35.915Z,14.10
2023-03-29T10:27:05.595Z,16.52
2023-03-29T10:29:37.433Z,19.75
2023-03-29T10:32:15.226Z,11.25
2023-03-29T10:34:43.509Z,17.95
2023-03-29T10:37:14.664Z,23.10
2023-03-29T10:39:42.532Z,18.80
2023-03-29T10:42:15.024Z,14.70
2023-03-29T10:44:42.966Z,15.60
2023-03-29T10:47:16.166Z,14.50
2023-03-29T10:49:47.398Z,17.13
2023-03-29T10:52:17.504Z,15.18
2023-03-29T10:54:46.349Z,16.98
2023-03-29T10:57:17.132Z,18.48
2023-03-29T10:59:50.247Z,16.27
2023-03-29T11:02:57.520Z,17.80
2023-03-29T11:05:30.945Z,19.13
2023-03-29T11:08:15.070Z,18.10
2023-03-29T11:10:50.486Z,13.52
2023-03-29T11:13:22.466Z,16.20
2023-03-29T11:15:59.598Z,21.20
2023-03-29T11:18:49.887Z,27.60
2023-03-29T11:21:26.104Z,18.25
2023-03-29T11:24:03.945Z,15.50
2023-03-29T11:26:37.141Z,13.07
2023-03-29T11:29:09.427Z,16.65
2023-03-29T11:31:42.211Z,12.30
2023-03-29T11:34:21.856Z,14.10
2023-03-29T11:36:53.846Z,17.17
2023-03-29T11:39:29.880Z,17.10
2023-03-29T11:42:04.198Z,17.30
2023-03-29T11:44:32.357Z,15.80
2023-03-29T11:47:03.539Z,18.55
2023-03-29T11:49:33.379Z,20.65
2023-03-29T11:52:06.174Z,17.35
2023-03-29T11:54:41.095Z,16.88
2023-03-29T11:57:15.164Z,15.48
2023-03-29T12:02:19.460Z,14.35
2023-03-29T12:04:50.721Z,20.27
2023-03-29T12:07:21.673Z,18.67
2023-03-29T12:09:52.975Z,16.02
2023-03-29T12:12:25.131Z,18.17
2023-03-29T12:14:59.909Z,16.40
2023-03-29T12:17:31.794Z,20.42
2023-03-29T12:20:08.358Z,17.02
2023-03-29T12:22:40.836Z,17.10
2023-03-29T12:25:14.927Z,18.38
2023-03-29T12:27:47.912Z,15.20
2023-03-29T12:30:34.346Z,20.35
2023-03-29T12:33:12.972Z,17.75
2023-03-29T12:36:14.927Z,19.38
2023-03-29T12:39:06.425Z,17.75
2023-03-29T12:42:15.347Z,18.55
2023-03-29T12:45:03.317Z,18.20
2023-03-29T12:47:38.406Z,21.40
2023-03-29T12:50:07.227Z,20.73
2023-03-29T12:52:36.522Z,19.58
2023-03-29T12:55:06.326Z,25.33
2023-03-29T12:57:43.316Z,18.83
2023-03-29T13:00:20.542Z,18.05
2023-03-29T13:03:01.237Z,16.67
2023-03-29T13:05:34.500Z,19.50
2023-03-29T13:08:18.603Z,17.40
2023-03-29T13:10:53.744Z,18.15
2023-03-29T13:13:27.705Z,15.98
2023-03-29T13:15:56.348Z,12.73
2023-03-29T13:18:34.022Z,18.65
2023-03-29T13:21:09.272Z,18.17
2023-03-29T13:23:45.904Z,13.93
2023-03-29T13:26:27.247Z,13.52
2023-03-29T13:29:06.585Z,18.70
2023-03-29T13:31:39.333Z,15.93
2023-03-29T13:34:17.853Z,17.33
2023-03-29T13:36:53.709Z,15.75
2023-03-29T13:39:24.150Z,15.00
2023-03-29T13:41:53.064Z,16.73
2023-03-29T13:44:34.543Z,16.92
2023-03-29T13:47:06.126Z,18.92
2023-03-29T13:49:35.536Z,17.55
2023-03-29T13:52:15.995Z,28.33
2023-03-29T13:54:49.364Z,15.00
2023-03-29T13:57:18.848Z,25.08
2023-03-29T13:59:54.961Z,26.90
2023-03-29T14:02:28.919Z,20.10
2023-03-29T14:04:59.915Z,15.73
2023-03-29T14:07:29.317Z,40.75
2023-03-29T14:09:59.222Z,15.77
2023-03-29T14:12:32.106Z,18.38
2023-03-29T14:15:03.742Z,17.42
2023-03-29T14:17:32.254Z,20.25
2023-03-29T14:20:02.267Z,17.77
2023-03-29T14:22:32.310Z,16.67
2023-03-29T14:25:03.439Z,14.95
2023-03-29T14:27:32.621Z,19.10
2023-03-29T14:30:02.281Z,14.80
2023-03-29T14:32:31.498Z,17.38
2023-03-29T14:34:59.476Z,17.60
2023-03-29T14:37:29.220Z,13.32
2023-03-29T14:39:57.506Z,14.93
2023-03-29T14:42:28.569Z,15.27
2023-03-29T14:45:00.044Z,16.95
2023-03-29T14:47:31.230Z,13.57
2023-03-29T14:50:01.082Z,11.90
2023-03-29T14:52:30.847Z,17.65
2023-03-29T14:55:00.800Z,15.60
2023-03-29T14:57:33.423Z,12.10
2023-03-29T15:00:04.743Z,15.73
2023-03-29T15:02:35.135Z,16.35
2023-03-29T15:05:05.371Z,11.70
2023-03-29T15:07:33.992Z,14.68
2023-03-29T15:10:03.310Z,13.38
2023-03-29T15:12:31.856Z,15.48
2023-03-29T15:15:00.859Z,14.73
2023-03-29T15:17:47.655Z,17.83
2023-03-29T15:20:23.330Z,11.35
2023-03-29T15:22:58.005Z,12.77
2023-03-29T15:25:33.126Z,8.15
2023-03-29T15:28:06.778Z,11.20
2023-03-29T15:30:38.932Z,11.13
2023-03-29T15:33:20.455Z,15.18
2023-03-29T15:35:54.079Z,15.45
2023-03-29T15:38:30.152Z,12.90
2023-03-29T15:41:08.239Z,14.68
2023-03-29T15:43:37.999Z,12.40
2023-03-29T15:46:06.863Z,18.83
2023-03-29T15:48:39.153Z,21.13
2023-03-29T15:51:11.663Z,11.55
2023-03-29T15:53:42.845Z,15.98
2023-03-29T15:56:17.288Z,12.50
2023-03-29T15:58:46.021Z,8.30
2023-03-29T16:01:24.077Z,8.63
2023-03-29T16:03:55.449Z,9.70
2023-03-29T16:06:29.302Z,14.77
2023-03-29T16:09:00.745Z,13.45
2023-03-29T16:11:35.702Z,19.58
2023-03-29T16:14:03.825Z,12.88
2023-03-29T16:16:33.186Z,10.32
2023-03-29T16:19:02.736Z,9.60
2023-03-29T16:21:30.932Z,10.60
2023-03-29T16:23:58.821Z,8.02
2023-03-29T16:26:27.468Z,9.20
2023-03-29T16:28:55.508Z,21.05
2023-03-29T16:31:25.877Z,19.45
2023-03-29T16:33:54.309Z,35.58
2023-03-29T16:36:23.699Z,21.20
2023-03-29T16:38:51.706Z,18.27
2023-03-29T16:41:19.655Z,13.80
2023-03-29T16:43:47.545Z,11.32
2023-03-29T16:46:15.795Z,11.50
2023-03-29T16:48:43.961Z,13.50
2023-03-29T16:51:12.313Z,11.48
2023-03-29T16:53:42.023Z,14.65
2023-03-29T16:56:13.090Z,7.20
2023-03-29T16:58:41.075Z,11.98
2023-03-29T17:01:10.960Z,11.35
2023-03-29T17:03:39.851Z,11.13
2023-03-29T17:06:09.240Z,14.95
2023-03-29T17:08:37.454Z,11.23
2023-03-29T17:11:07.557Z,9.98
2023-03-29T17:13:37.438Z,12.98
2023-03-29T17:16:06.186Z,8.45
2023-03-29T17:18:34.682Z,8.90
2023-03-29T17:21:03.145Z,15.13
2023-03-29T17:23:31.221Z,8.75
2023-03-29T17:25:59.508Z,9.38
2023-03-29T17:28:29.348Z,16.60
2023-03-29T17:30:57.419Z,58.90
2023-03-29T17:33:26.214Z,31.17
2023-03-29T17:35:54.492Z,13.48
2023-03-29T17:38:22.657Z,11.15
2023-03-29T17:40:54.116Z,12.23
2023-03-29T17:43:22.273Z,12.18
2023-03-29T17:45:53.529Z,12.20
2023-03-29T17:48:21.981Z,12.13
2023-03-29T17:50:49.996Z,14.43
2023-03-29T17:53:18.011Z,14.48
2023-03-29T17:55:45.944Z,18.33
2023-03-29T17:58:13.806Z,15.02
2023-03-29T18:00:41.776Z,11.93
2023-03-29T18:03:11.286Z,43.55
2023-03-29T18:05:39.164Z,25.88
2023-03-29T18:08:08.654Z,18.70
2023-03-29T18:10:36.909Z,19.88
2023-03-29T18:13:04.780Z,25.80
2023-03-29T18:15:32.845Z,22.35
2023-03-29T18:18:00.793Z,50.65
2023-03-29T18:20:30.397Z,26.13
2023-03-29T18:22:58.372Z,16.98
2023-03-29T18:25:26.443Z,18.67
2023-03-29T18:27:54.379Z,27.95
2023-03-29T18:30:22.522Z,17.30
2023-03-29T18:32:50.508Z,18.50
2023-03-29T18:35:18.757Z,17.30
2023-03-29T18:37:48.113Z,14.50
2023-03-29T18:40:19.895Z,15.60
2023-03-29T18:42:47.910Z,13.52
2023-03-29T18:45:16.012Z,15.40
2023-03-29T18:47:44.095Z,29.23
2023-03-29T18:50:13.258Z,17.27
2023-03-29T18:52:42.245Z,13.93
2023-03-29T18:55:11.705Z,11.77
2023-03-29T18:57:39.608Z,11.57
2023-03-29T19:00:12.575Z,12.32
2023-03-29T19:02:40.617Z,9.77
2023-03-29T19:05:09.681Z,11.40
2023-03-29T19:07:37.890Z,11.02
2023-03-29T19:10:06.884Z,10.20
2023-03-29T19:12:36.720Z,10.90
2023-03-29T19:15:04.982Z,10.52
2023-03-29T19:17:33.021Z,10.25
2023-03-29T19:20:01.044Z,8.40
2023-03-29T19:22:29.216Z,11.73
2023-03-29T19:24:57.181Z,8.35
2023-03-29T19:27:25.324Z,10.68
2023-03-29T19:29:54.617Z,7.75
2023-03-29T19:32:22.611Z,10.63
2023-03-29T19:34:50.776Z,14.15
2023-03-29T19:37:20.803Z,14.45
2023-03-29T19:39:49.085Z,22.13
2023-03-29T19:42:17.041Z,10.65
2023-03-29T19:44:45.030Z,12.60
2023-03-29T19:47:14.427Z,11.95
2023-03-29T19:49:42.698Z,14.25
2023-03-29T19:52:10.840Z,10.63
2023-03-29T19:54:38.914Z,9.95
2023-03-29T19:57:09.225Z,8.57
2023-03-29T19:59:40.801Z,13.13
2023-03-29T20:02:10.925Z,11.85
2023-03-29T20:04:40.666Z,10.57
2023-03-29T20:07:08.658Z,9.80
2023-03-29T20:09:37.757Z,11.10
2023-03-29T20:12:06.204Z,8.68
2023-03-29T20:14:34.952Z,9.52
2023-03-29T20:17:03.550Z,9.25
2023-03-29T20:19:31.649Z,10.13
2023-03-29T20:22:00.895Z,11.02
2023-03-29T20:24:29.031Z,11.32
2023-03-29T20:26:56.748Z,11.65
2023-03-29T20:29:24.919Z,11.95
2023-03-29T20:31:53.218Z,9.35
2023-03-29T20:34:21.505Z,11.32
2023-03-29T20:36:49.621Z,13.05
2023-03-29T20:39:18.867Z,9.65
2023-03-29T20:41:47.920Z,11.05
2023-03-29T20:44:16.973Z,11.90
2023-03-29T20:46:54.335Z,9.38
2023-03-29T20:49:26.473Z,8.45
2023-03-29T20:51:58.653Z,15.27
2023-03-29T20:54:27.954Z,10.57
2023-03-29T20:56:56.080Z,12.63
2023-03-29T20:59:24.134Z,12.68
2023-03-29T21:01:52.257Z,11.40
2023-03-29T21:04:20.229Z,10.10
2023-03-29T21:06:49.668Z,12.82
2023-03-29T21:09:17.812Z,12.90
2023-03-29T21:11:47.114Z,13.95
2023-03-29T21:14:19.579Z,10.70
2023-03-29T21:16:48.063Z,11.90
2023-03-29T21:19:17.164Z,18.35
2023-03-29T21:21:47.546Z,16.35
2023-03-29T21:24:15.869Z,10.60
2023-03-29T21:26:43.857Z,14.80
2023-03-29T21:29:12.971Z,11.48
2023-03-29T21:31:43.791Z,15.80
2023-03-29T21:34:11.728Z,14.05
2023-03-29T21:36:39.863Z,11.98
2023-03-29T21:39:07.823Z,14.32
2023-03-29T21:41:36.006Z,10.40
2023-03-29T21:44:03.806Z,12.52
2023-03-29T21:46:33.041Z,13.65
2023-03-29T21:49:00.906Z,7.07
2023-03-29T21:51:28.750Z,10.75
2023-03-29T21:53:56.874Z,13.75
2023-03-29T21:56:24.705Z,14.25
2023-03-29T21:58:52.827Z,15.32
2023-03-29T22:01:20.826Z,14.68
2023-03-29T22:03:50.436Z,11.20
2023-03-29T22:06:18.321Z,15.20
2023-03-29T22:08:46.947Z,9.68
2023-03-29T22:11:16.178Z,10.45
2023-03-29T22:13:44.967Z,17.92
2023-03-29T22:16:16.793Z,12.02
2023-03-29T22:18:47.000Z,13.00
2023-03-29T22:21:18.507Z,14.98
2023-03-29T22:23:47.990Z,11.70
2023-03-29T22:26:17.783Z,14.10
2023-03-29T22:28:46.160Z,12.10
2023-03-29T22:31:15.415Z,14.30
2023-03-29T22:33:43.700Z,10.35
2023-03-29T22:36:18.165Z,13.02
2023-03-29T22:38:46.593Z,14.70
2023-03-29T22:41:15.423Z,17.27
2023-03-29T22:43:43.485Z,13.98
2023-03-29T22:46:13.071Z,13.52
2023-03-29T22:48:41.085Z,14.57
2023-03-29T22:51:09.174Z,8.30
2023-03-29T22:53:38.468Z,17.15
2023-03-29T22:56:09.140Z,14.95
2023-03-29T22:58:37.356Z,9.07
2023-03-29T23:01:05.973Z,10.88
2023-03-29T23:03:34.201Z,17.38
2023-03-29T23:06:03.130Z,17.02
2023-03-29T23:08:31.873Z,11.85
2023-03-29T23:11:01.498Z,10.93
2023-03-29T23:13:30.072Z,11.48
2023-03-29T23:15:59.277Z,10.27
2023-03-29T23:18:28.512Z,11.57
2023-03-29T23:20:58.467Z,12.80
2023-03-29T23:23:27.798Z,9.40
2023-03-29T23:25:56.547Z,14.13
2023-03-29T23:28:27.660Z,10.55
2023-03-29T23:30:58.172Z,7.72
2023-03-29T23:33:26.707Z,15.57
2023-03-29T23:35:55.255Z,15.52
2023-03-29T23:38:24.239Z,8.32
2023-03-29T23:40:58.854Z,11.45
2023-03-29T23:43:31.817Z,9.95
2023-03-29T23:46:00.382Z,9.30
2023-03-29T23:48:28.307Z,18.17
2023-03-29T23:50:57.250Z,8.57
2023-03-29T23:53:25.490Z,10.20
2023-03-29T23:55:58.190Z,12.07
2023-03-29T23:58:26.330Z,14.45
